Time;durP1;ratioP1;P1;durP2;ratioP2;P2;SDS_P1;SDS_P2;PMS_P1;PMS_P2;Temp;Humidity;BMP_temperature;BMP_pressure;BME280_temperature;BME280_humidity;BME280_pressure;Samples;Min_cycle;Max_cycle;Signal;HPM_P1;HPM_P2
2023/05/04 00:01:47;;;;;;;11.30;5.85;;;5.30;99.90;;;;;;5073702;28;20492;-24
2023/05/04 00:04:13;;;;;;;12.15;6.13;;;5.40;99.90;;;;;;5074368;28;20132;-24
2023/05/04 00:06:39;;;;;;;10.57;5.93;;;4.90;99.90;;;;;;5074771;28;20044;-24
2023/05/04 00:09:05;;;;;;;10.80;6.38;;;4.90;99.90;;;;;;5074972;28;20045;-24
2023/05/04 00:11:32;;;;;;;12.35;6.05;;;4.70;99.90;;;;;;5074638;28;20045;-24
2023/05/04 00:13:58;;;;;;;9.40;5.75;;;4.90;99.90;;;;;;5073357;28;20078;-24
2023/05/04 00:16:24;;;;;;;10.43;6.50;;;4.90;99.90;;;;;;5073776;28;20041;-24
2023/05/04 00:18:49;;;;;;;13.57;6.85;;;4.90;1.00;;;;;;5075186;28;20059;-24
2023/05/04 00:21:15;;;;;;;14.43;7.20;;;4.80;99.90;;;;;;5075295;28;20052;-24
2023/05/04 00:23:41;;;;;;;11.30;6.05;;;5.00;99.90;;;;;;5074439;28;20040;-24
2023/05/04 00:26:07;;;;;;;12.88;7.05;;;5.00;99.90;;;;;;5074221;28;20044;-24
2023/05/04 00:28:32;;;;;;;13.70;7.10;;;4.80;99.90;;;;;;5073101;28;20052;-24
2023/05/04 00:30:58;;;;;;;16.77;7.05;;;4.80;1.00;;;;;;5074298;28;20041;-24
2023/05/04 00:33:24;;;;;;;12.57;7.30;;;4.60;1.00;;;;;;5075050;28;20048;-24
2023/05/04 00:35:49;;;;;;;13.80;6.78;;;4.90;99.90;;;;;;5073171;28;20159;-24
2023/05/04 00:38:15;;;;;;;13.48;5.93;;;5.10;1.00;;;;;;5074713;28;20045;-24
2023/05/04 00:40:41;;;;;;;13.70;5.90;;;4.90;99.90;;;;;;5074169;28;20493;-23
2023/05/04 00:43:07;;;;;;;14.57;7.22;;;4.80;99.90;;;;;;5073714;28;20041;-24
2023/05/04 00:45:33;;;;;;;11.80;6.07;;;4.90;99.90;;;;;;5073719;28;20040;-24
2023/05/04 00:47:59;;;;;;;13.85;5.90;;;4.60;99.90;;;;;;5073246;28;20055;-24
2023/05/04 00:50:27;;;;;;;18.02;7.00;;;4.90;1.00;;;;;;5074254;28;20052;-24
2023/05/04 00:52:57;;;;;;;13.60;6.10;;;4.80;1.00;;;;;;5074523;28;20044;-24
2023/05/04 00:55:23;;;;;;;11.75;6.53;;;5.10;1.00;;;;;;5074729;28;20048;-24
2023/05/04 00:57:49;;;;;;;10.57;5.75;;;4.90;1.00;;;;;;5074048;28;20540;-24
2023/05/04 01:00:15;;;;;;;12.60;6.32;;;4.90;99.90;;;;;;5073256;28;20238;-24
2023/05/04 01:02:41;;;;;;;13.48;6.63;;;4.80;1.00;;;;;;5072687;28;20474;-23
2023/05/04 01:05:09;;;;;;;13.93;6.68;;;5.10;1.00;;;;;;5073844;28;20052;-24
2023/05/04 01:07:51;;;;;;;14.77;7.78;;;4.80;1.00;;;;;;5072785;28;20110;-24
2023/05/04 01:11:02;;;;;;;16.00;7.00;;;4.80;1.00;;;;;;5074373;28;20088;-25
2023/05/04 01:13:30;;;;;;;12.23;5.95;;;4.80;1.00;;;;;;5057717;28;20506;-24
2023/05/04 01:15:57;;;;;;;10.93;6.25;;;4.80;1.00;;;;;;5073659;28;20084;-24
2023/05/04 01:18:22;;;;;;;12.93;6.30;;;5.00;1.00;;;;;;5072881;28;20063;-23
2023/05/04 01:20:48;;;;;;;13.70;7.40;;;4.70;1.00;;;;;;5073674;28;20048;-24
2023/05/04 01:23:14;;;;;;;11.30;6.43;;;5.10;1.00;;;;;;5073940;28;20044;-24
2023/05/04 01:25:56;;;;;;;15.35;7.32;;;4.90;1.00;;;;;;5073589;28;20048;-24
2023/05/04 01:28:33;;;;;;;14.70;6.50;;;4.80;1.00;;;;;;5073884;28;20127;-24
2023/05/04 01:31:01;;;;;;;18.63;7.95;;;5.00;1.00;;;;;;5074213;28;20051;-24
2023/05/04 01:33:29;;;;;;;14.45;7.25;;;5.10;1.00;;;;;;5073530;28;20048;-23
2023/05/04 01:35:55;;;;;;;17.67;7.82;;;4.80;1.00;;;;;;5073430;28;20086;-24
2023/05/04 01:38:21;;;;;;;13.57;7.13;;;4.80;1.00;;;;;;5073446;28;20099;-25
2023/05/04 01:40:46;;;;;;;14.55;7.30;;;5.30;1.00;;;;;;5073468;28;20055;-24
2023/05/04 01:43:12;;;;;;;14.23;7.53;;;4.70;1.00;;;;;;5073727;28;20044;-24
2023/05/04 01:45:38;;;;;;;12.93;7.15;;;4.60;1.00;;;;;;5073394;28;20044;-24
2023/05/04 01:48:04;;;;;;;15.00;7.05;;;4.80;1.00;;;;;;5073290;28;20045;-24
2023/05/04 01:50:29;;;;;;;12.52;6.50;;;4.70;1.00;;;;;;5073219;28;20101;-24
2023/05/04 01:52:55;;;;;;;16.75;7.60;;;4.70;1.00;;;;;;5073352;28;20548;-24
2023/05/04 01:55:21;;;;;;;12.30;7.15;;;4.70;1.00;;;;;;5074532;28;20506;-24
2023/05/04 01:57:46;;;;;;;14.40;7.07;;;4.60;1.00;;;;;;5077459;28;20098;-24
2023/05/04 02:00:14;;;;;;;15.15;6.68;;;4.50;1.00;;;;;;5077790;28;20084;-24
2023/05/04 02:02:40;;;;;;;14.10;6.68;;;4.70;1.00;;;;;;5076462;28;20052;-24
2023/05/04 02:05:06;;;;;;;13.00;6.35;;;4.90;1.00;;;;;;5077692;28;20135;-24
2023/05/04 02:07:32;;;;;;;11.30;6.70;;;4.70;1.00;;;;;;5077069;28;20094;-24
2023/05/04 02:09:57;;;;;;;13.10;6.55;;;4.60;1.00;;;;;;5077583;28;20367;-24
2023/05/04 02:12:23;;;;;;;15.88;7.05;;;4.70;1.00;;;;;;5077252;28;20044;-24
2023/05/04 02:14:49;;;;;;;14.80;7.20;;;4.60;1.00;;;;;;5075940;28;20095;-24
2023/05/04 02:17:14;;;;;;;9.55;6.32;;;4.70;1.00;;;;;;5076835;28;20536;-24
2023/05/04 02:19:40;;;;;;;10.57;6.70;;;5.00;1.00;;;;;;5077276;28;20542;-24
2023/05/04 02:22:06;;;;;;;15.68;6.55;;;4.70;1.00;;;;;;5076800;28;20175;-24
2023/05/04 02:24:33;;;;;;;10.77;5.95;;;4.70;1.00;;;;;;5077284;28;20080;-24
2023/05/04 02:26:58;;;;;;;11.20;7.13;;;5.00;1.00;;;;;;5075714;28;20475;-24
2023/05/04 02:29:24;;;;;;;13.23;6.95;;;4.60;1.00;;;;;;5077236;28;20051;-24
2023/05/04 02:31:50;;;;;;;13.52;7.15;;;4.70;1.00;;;;;;5076620;28;20048;-24
2023/05/04 02:34:16;;;;;;;10.48;6.78;;;4.80;1.00;;;;;;5075930;28;20047;-23
2023/05/04 02:36:41;;;;;;;19.58;8.02;;;4.60;1.00;;;;;;5076435;28;20087;-24
2023/05/04 02:39:07;;;;;;;13.48;7.00;;;4.90;1.00;;;;;;5076758;28;20063;-24
2023/05/04 02:41:33;;;;;;;14.93;6.90;;;4.60;1.00;;;;;;5076439;28;20053;-24
2023/05/04 02:43:58;;;;;;;16.45;7.05;;;4.70;1.00;;;;;;5076387;28;20048;-24
2023/05/04 02:46:25;;;;;;;12.90;6.80;;;4.50;1.00;;;;;;5076214;28;20460;-24
2023/05/04 02:48:51;;;;;;;14.57;6.95;;;4.60;1.00;;;;;;5075899;28;20558;-23
2023/05/04 02:51:20;;;;;;;14.20;7.45;;;4.60;1.00;;;;;;5075615;28;20166;-24
2023/05/04 02:53:45;;;;;;;11.93;7.63;;;5.10;1.00;;;;;;5076204;28;20056;-24
2023/05/04 02:56:11;;;;;;;18.70;7.55;;;4.60;1.00;;;;;;5076113;28;20052;-24
2023/05/04 02:58:37;;;;;;;10.52;6.82;;;5.10;1.00;;;;;;5076167;28;20060;-24
2023/05/04 03:01:03;;;;;;;16.27;7.65;;;5.00;1.00;;;;;;5076422;28;20242;-24
2023/05/04 03:03:28;;;;;;;18.40;8.10;;;4.80;1.00;;;;;;5075089;28;20045;-24
2023/05/04 03:05:54;;;;;;;13.70;7.55;;;5.10;1.00;;;;;;5076298;28;20045;-24
2023/05/04 03:08:20;;;;;;;18.58;7.60;;;4.60;1.00;;;;;;5075459;28;20498;-24
2023/05/04 03:10:46;;;;;;;17.63;7.68;;;4.70;1.00;;;;;;5076001;28;20040;-24
2023/05/04 03:13:11;;;;;;;13.27;7.50;;;4.80;1.00;;;;;;5074928;28;20044;-24
2023/05/04 03:15:37;;;;;;;21.15;8.35;;;4.80;1.00;;;;;;5076162;28;20048;-24
2023/05/04 03:18:03;;;;;;;12.77;7.40;;;4.70;1.00;;;;;;5074362;28;20398;-23
2023/05/04 03:20:28;;;;;;;16.67;8.43;;;4.80;1.00;;;;;;5075787;28;20053;-25
2023/05/04 03:22:54;;;;;;;15.32;8.40;;;4.70;1.00;;;;;;5076240;28;20078;-24
2023/05/04 03:25:20;;;;;;;12.85;8.35;;;4.90;48.70;;;;;;5075893;28;20045;-24
2023/05/04 03:27:45;;;;;;;14.52;8.23;;;4.70;1.00;;;;;;5074466;28;20047;-24
2023/05/04 03:30:12;;;;;;;13.02;7.63;;;4.70;1.00;;;;;;5075210;28;20079;-24
2023/05/04 03:32:39;;;;;;;15.55;8.45;;;4.70;1.00;;;;;;5075501;28;20075;-24
2023/05/04 03:35:05;;;;;;;15.10;9.18;;;4.60;1.00;;;;;;5075443;28;20086;-24
2023/05/04 03:37:30;;;;;;;17.05;8.88;;;4.80;1.00;;;;;;5075354;28;20052;-24
2023/05/04 03:39:56;;;;;;;17.15;9.27;;;5.10;1.00;;;;;;5075880;28;20482;-24
2023/05/04 03:42:22;;;;;;;16.50;9.02;;;4.80;1.00;;;;;;5057678;28;20045;-24
2023/05/04 03:44:47;;;;;;;17.67;8.68;;;4.90;1.00;;;;;;5075296;28;20055;-24
2023/05/04 03:47:13;;;;;;;16.42;8.52;;;4.90;1.00;;;;;;5075224;28;20378;-24
2023/05/04 03:49:39;;;;;;;15.38;7.50;;;4.80;1.00;;;;;;5075620;28;20173;-24
2023/05/04 03:52:05;;;;;;;13.85;8.50;;;4.90;1.00;;;;;;5075648;28;20045;-24
2023/05/04 03:54:31;;;;;;;13.15;8.50;;;4.90;1.00;;;;;;5074901;28;20056;-24
2023/05/04 03:56:57;;;;;;;13.23;8.15;;;5.20;28.50;;;;;;5073749;28;20386;-24
2023/05/04 03:59:22;;;;;;;17.85;8.70;;;5.10;37.20;;;;;;5074981;28;20082;-24
2023/05/04 04:01:48;;;;;;;19.13;8.32;;;4.80;42.90;;;;;;5075151;28;20084;-24
2023/05/04 04:04:14;;;;;;;14.77;8.38;;;5.00;16.70;;;;;;5074858;28;20048;-24
2023/05/04 04:06:40;;;;;;;15.32;8.05;;;5.20;4.60;;;;;;5075102;28;20438;-24
2023/05/04 04:09:06;;;;;;;14.48;8.50;;;5.10;46.30;;;;;;5074778;28;20131;-23
2023/05/04 04:11:32;;;;;;;15.95;8.80;;;5.10;46.00;;;;;;5073547;28;20048;-24
2023/05/04 04:13:57;;;;;;;17.70;8.85;;;5.00;1.30;;;;;;5074658;28;20398;-24
2023/05/04 04:16:23;;;;;;;15.25;8.57;;;5.00;49.60;;;;;;5074806;28;20044;-24
2023/05/04 04:18:49;;;;;;;15.20;8.60;;;5.30;11.50;;;;;;5073697;28;20529;-24
2023/05/04 04:21:15;;;;;;;12.90;7.40;;;5.10;1.00;;;;;;5074567;28;20491;-24
2023/05/04 04:23:40;;;;;;;13.52;7.47;;;5.30;1.00;;;;;;5074467;28;20131;-24
2023/05/04 04:26:06;;;;;;;23.30;10.23;;;5.10;1.00;;;;;;5075022;28;20048;-24
2023/05/04 04:28:32;;;;;;;14.00;8.45;;;5.10;1.00;;;;;;5074939;28;20048;-24
2023/05/04 04:30:58;;;;;;;15.68;7.40;;;5.20;1.00;;;;;;5074184;28;20056;-24
2023/05/04 04:33:24;;;;;;;12.85;8.40;;;5.40;1.00;;;;;;5073013;28;20053;-24
2023/05/04 04:35:51;;;;;;;16.98;8.68;;;5.40;17.60;;;;;;5074122;28;20052;-24
2023/05/04 04:38:17;;;;;;;11.52;7.18;;;5.30;1.00;;;;;;5074202;28;20044;-24
2023/05/04 04:40:43;;;;;;;16.42;9.18;;;5.20;34.70;;;;;;5056672;28;20097;-24
2023/05/04 04:43:10;;;;;;;12.10;7.93;;;5.30;21.70;;;;;;5074125;28;20040;-25
2023/05/04 04:45:36;;;;;;;21.17;8.05;;;5.30;35.10;;;;;;5074060;28;20101;-24
2023/05/04 04:48:02;;;;;;;14.93;7.68;;;5.40;41.10;;;;;;5073940;28;20041;-24
2023/05/04 04:50:28;;;;;;;13.23;8.55;;;5.40;10.10;;;;;;5073999;28;20044;-24
2023/05/04 04:52:54;;;;;;;15.70;7.85;;;5.50;46.20;;;;;;5073287;28;20049;-24
2023/05/04 04:55:22;;;;;;;13.10;7.47;;;5.50;27.10;;;;;;5072717;28;20414;-24
2023/05/04 04:57:49;;;;;;;15.15;7.97;;;5.80;51.00;;;;;;5073859;28;20052;-25
2023/05/04 05:00:15;;;;;;;13.80;8.63;;;5.60;47.20;;;;;;5074475;28;20048;-24
2023/05/04 05:02:42;;;;;;;16.35;7.95;;;5.70;24.80;;;;;;5074139;28;20397;-24
2023/05/04 05:05:08;;;;;;;12.65;7.32;;;5.80;28.40;;;;;;5074378;28;20127;-24
2023/05/04 05:07:34;;;;;;;13.85;7.97;;;5.90;9.00;;;;;;5072604;28;20094;-24
2023/05/04 05:09:59;;;;;;;15.32;8.13;;;5.90;13.40;;;;;;5073135;28;20040;-24
2023/05/04 05:12:25;;;;;;;13.80;8.23;;;6.00;1.00;;;;;;5073723;28;20048;-25
2023/05/04 05:14:51;;;;;;;17.88;7.43;;;6.00;1.00;;;;;;5072542;28;20040;-24
2023/05/04 05:17:18;;;;;;;10.90;7.95;;;6.30;1.00;;;;;;5073607;28;20054;-24
2023/05/04 05:19:44;;;;;;;19.27;7.97;;;6.30;1.00;;;;;;5074200;28;20471;-24
2023/05/04 05:22:09;;;;;;;15.70;7.97;;;6.30;1.00;;;;;;5074263;28;20135;-24
2023/05/04 05:24:35;;;;;;;18.00;8.23;;;6.40;1.00;;;;;;5073603;28;20060;-25
2023/05/04 05:27:01;;;;;;;10.63;6.65;;;6.30;1.00;;;;;;5073618;28;20040;-24
2023/05/04 05:29:27;;;;;;;14.57;7.55;;;6.50;1.00;;;;;;5073120;28;20375;-24
2023/05/04 05:31:53;;;;;;;12.45;6.93;;;6.50;1.00;;;;;;5073479;28;20123;-24
2023/05/04 05:34:18;;;;;;;16.30;7.38;;;6.50;1.00;;;;;;5073442;28;20094;-24
2023/05/04 05:36:44;;;;;;;12.45;7.25;;;6.70;1.00;;;;;;5073280;28;20123;-24
2023/05/04 05:39:10;;;;;;;15.20;7.22;;;6.80;1.00;;;;;;5072196;28;20045;-24
2023/05/04 05:41:36;;;;;;;19.90;7.28;;;6.90;1.00;;;;;;5073380;28;20045;-24
2023/05/04 05:44:02;;;;;;;15.27;7.25;;;7.00;99.90;;;;;;5073408;28;20055;-24
2023/05/04 05:46:28;;;;;;;12.13;5.90;;;7.10;99.90;;;;;;5056581;28;20049;-24
2023/05/04 05:48:54;;;;;;;13.35;6.40;;;7.30;99.90;;;;;;5055674;28;20382;-25
2023/05/04 05:51:19;;;;;;;13.70;6.20;;;7.40;99.90;;;;;;5072240;28;20106;-25
2023/05/04 05:53:45;;;;;;;10.68;6.32;;;7.60;99.90;;;;;;5073760;28;20080;-25
2023/05/04 05:56:12;;;;;;;13.18;5.85;;;7.70;99.90;;;;;;5071877;28;20072;-25
2023/05/04 05:58:38;;;;;;;11.93;6.63;;;7.80;99.90;;;;;;5071941;28;20045;-24
2023/05/04 06:01:04;;;;;;;16.25;6.82;;;7.90;99.90;;;;;;5073021;28;20048;-25
2023/05/04 06:03:29;;;;;;;14.70;6.10;;;7.90;99.90;;;;;;5073401;28;20424;-25
2023/05/04 06:05:55;;;;;;;12.40;5.88;;;7.90;99.90;;;;;;5073220;28;20109;-25
2023/05/04 06:08:21;;;;;;;11.93;6.15;;;8.00;99.90;;;;;;5073800;28;20447;-25
2023/05/04 06:10:47;;;;;;;9.93;5.93;;;8.20;99.80;;;;;;5073201;28;20048;-25
2023/05/04 06:13:13;;;;;;;11.90;5.13;;;8.20;44.90;;;;;;5072181;28;20506;-25
2023/05/04 06:15:38;;;;;;;13.95;6.13;;;8.20;15.30;;;;;;5073418;28;20085;-25
2023/05/04 06:18:04;;;;;;;10.35;4.82;;;8.20;1.00;;;;;;5071387;28;20044;-24
2023/05/04 06:20:30;;;;;;;11.88;5.43;;;8.30;35.30;;;;;;5074296;28;20053;-25
2023/05/04 06:22:56;;;;;;;13.38;6.38;;;8.40;1.00;;;;;;5071891;28;20051;-25
2023/05/04 06:25:22;;;;;;;12.57;6.15;;;8.50;1.00;;;;;;5073212;28;20498;-25
2023/05/04 06:27:47;;;;;;;17.08;6.40;;;8.60;1.00;;;;;;5072950;28;20040;-25
2023/05/04 06:30:14;;;;;;;12.60;5.72;;;8.70;1.00;;;;;;5072129;28;20097;-25
2023/05/04 06:32:40;;;;;;;11.52;5.82;;;8.80;1.00;;;;;;5071983;28;20640;-25
2023/05/04 06:35:07;;;;;;;12.90;6.10;;;9.00;1.00;;;;;;5071608;28;20048;-25
2023/05/04 06:37:33;;;;;;;11.60;5.60;;;9.00;1.00;;;;;;5072761;28;20478;-27
2023/05/04 06:39:59;;;;;;;14.88;6.35;;;9.10;99.90;;;;;;5072820;28;20051;-26
2023/05/04 06:42:30;;;;;;;11.63;6.35;;;9.20;99.90;;;;;;5074249;28;20076;-26
2023/05/04 06:44:56;;;;;;;16.05;6.18;;;9.20;99.90;;;;;;5076474;28;20045;-26
2023/05/04 06:47:22;;;;;;;10.55;5.70;;;9.20;99.90;;;;;;5076307;28;20498;-26
2023/05/04 06:49:48;;;;;;;12.75;5.43;;;9.20;99.90;;;;;;5076796;28;20040;-26
2023/05/04 06:52:14;;;;;;;11.15;5.70;;;9.20;99.50;;;;;;5075336;28;20040;-26
2023/05/04 06:54:39;;;;;;;12.43;5.55;;;9.20;99.90;;;;;;5076267;28;20048;-26
2023/05/04 06:57:05;;;;;;;16.48;6.38;;;9.30;99.90;;;;;;5074969;28;20056;-27
2023/05/04 06:59:31;;;;;;;13.13;5.53;;;9.40;99.90;;;;;;5076108;28;20049;-26
2023/05/04 07:01:57;;;;;;;10.15;5.55;;;9.50;99.90;;;;;;5074954;28;20052;-26
2023/05/04 07:04:23;;;;;;;13.43;6.47;;;9.50;99.90;;;;;;5076651;28;20048;-26
2023/05/04 07:06:49;;;;;;;12.85;6.15;;;9.60;99.90;;;;;;5076035;28;20041;-26
2023/05/04 07:09:17;;;;;;;13.38;5.88;;;9.80;99.90;;;;;;5076523;28;20090;-26
2023/05/04 07:11:43;;;;;;;11.77;5.35;;;10.20;99.90;;;;;;5076459;28;20154;-25
2023/05/04 07:14:10;;;;;;;12.68;5.53;;;10.20;99.90;;;;;;5075893;28;20070;-26
2023/05/04 07:16:35;;;;;;;15.52;6.95;;;10.30;99.90;;;;;;5075508;28;20160;-26
2023/05/04 07:19:01;;;;;;;11.32;6.18;;;10.40;99.90;;;;;;5075878;28;20092;-26
2023/05/04 07:21:27;;;;;;;14.82;6.90;;;10.60;99.90;;;;;;5057924;28;20482;-26
2023/05/04 07:23:53;;;;;;;11.30;6.05;;;10.70;99.90;;;;;;5076067;28;20059;-26
2023/05/04 07:26:20;;;;;;;13.23;6.53;;;10.80;99.90;;;;;;5075587;28;20049;-27
2023/05/04 07:28:46;;;;;;;13.25;5.85;;;10.90;1.00;;;;;;5075571;28;20049;-27
2023/05/04 07:31:13;;;;;;;14.38;6.03;;;10.80;1.00;;;;;;5074242;28;20153;-26
2023/05/04 07:33:39;;;;;;;14.20;6.22;;;11.00;1.00;;;;;;5074821;28;20051;-26
2023/05/04 07:36:05;;;;;;;12.75;6.40;;;11.00;1.00;;;;;;5075167;28;20044;-27
2023/05/04 07:38:32;;;;;;;9.55;6.07;;;11.00;99.90;;;;;;5075338;28;20540;-27
2023/05/04 07:40:57;;;;;;;11.55;5.78;;;11.10;99.90;;;;;;5075236;28;20114;-27
2023/05/04 07:43:23;;;;;;;14.70;6.18;;;11.00;99.90;;;;;;5075225;28;20088;-26
2023/05/04 07:45:51;;;;;;;9.07;5.60;;;11.10;99.90;;;;;;5073979;28;20060;-26
2023/05/04 07:48:17;;;;;;;11.20;5.20;;;11.20;99.90;;;;;;5075004;28;20124;-27
2023/05/04 07:50:42;;;;;;;9.25;6.05;;;11.40;99.90;;;;;;5075547;28;20185;-27
2023/05/04 07:53:08;;;;;;;9.93;5.32;;;11.50;99.90;;;;;;5073740;28;20494;-26
2023/05/04 07:55:34;;;;;;;13.48;6.07;;;11.60;99.90;;;;;;5074963;28;20047;-27
2023/05/04 07:58:00;;;;;;;13.32;5.07;;;11.70;99.90;;;;;;5074877;28;20041;-26
2023/05/04 08:00:26;;;;;;;10.40;5.75;;;11.90;99.90;;;;;;5074233;28;20050;-26
2023/05/04 08:02:51;;;;;;;11.48;5.80;;;12.00;1.00;;;;;;5073695;28;20044;-26
2023/05/04 08:05:17;;;;;;;10.82;4.90;;;12.20;37.80;;;;;;5074358;28;20080;-27
2023/05/04 08:07:43;;;;;;;13.77;5.47;;;12.50;28.50;;;;;;5074735;28;20041;-26
2023/05/04 08:10:09;;;;;;;9.27;4.57;;;12.70;1.00;;;;;;5074689;28;20055;-26
2023/05/04 08:12:35;;;;;;;12.38;5.70;;;12.90;1.00;;;;;;5073436;28;20540;-26
2023/05/04 08:15:00;;;;;;;10.82;5.22;;;13.10;99.90;;;;;;5074543;28;20048;-26
2023/05/04 08:17:27;;;;;;;10.20;4.88;;;13.20;99.90;;;;;;5073299;28;20102;-27
2023/05/04 08:19:53;;;;;;;12.48;4.90;;;13.30;99.90;;;;;;5073237;28;20084;-26
2023/05/04 08:22:18;;;;;;;10.40;4.72;;;13.30;1.00;;;;;;5075103;28;20092;-27
2023/05/04 08:24:46;;;;;;;9.82;4.20;;;13.40;1.00;;;;;;5074372;28;20570;-27
2023/05/04 08:27:13;;;;;;;13.30;4.68;;;13.60;99.90;;;;;;5073641;28;20082;-27
2023/05/04 08:29:40;;;;;;;8.77;4.85;;;13.80;99.90;;;;;;5074146;28;20051;-27
2023/05/04 08:32:07;;;;;;;12.38;4.65;;;14.00;99.90;;;;;;5074857;28;20052;-27
2023/05/04 08:34:33;;;;;;;13.43;5.22;;;14.10;90.10;;;;;;5074755;28;20049;-27
2023/05/04 08:36:58;;;;;;;12.77;4.40;;;14.20;1.00;;;;;;5074066;28;20530;-27
2023/05/04 08:39:24;;;;;;;14.55;5.15;;;14.30;3.40;;;;;;5073008;28;20131;-27
2023/05/04 08:41:50;;;;;;;10.10;4.95;;;14.30;1.00;;;;;;5074088;28;20510;-27
2023/05/04 08:44:19;;;;;;;11.32;4.90;;;14.30;1.00;;;;;;5072979;28;20090;-27
2023/05/04 08:46:52;;;;;;;8.45;4.47;;;14.50;1.00;;;;;;5073951;28;20051;-27
2023/05/04 08:49:22;;;;;;;11.02;4.82;;;14.50;1.00;;;;;;5073008;28;20423;-27
2023/05/04 08:51:51;;;;;;;8.45;4.55;;;14.70;1.00;;;;;;5074368;28;20059;-27
2023/05/04 08:54:17;;;;;;;14.25;4.80;;;14.70;99.90;;;;;;5056132;28;20497;-26
2023/05/04 08:56:45;;;;;;;13.93;4.63;;;15.30;99.90;;;;;;5075789;28;20043;-25
2023/05/04 08:59:20;;;;;;;9.48;4.35;;;15.40;1.00;;;;;;5073894;28;20189;-27
2023/05/04 09:01:50;;;;;;;9.25;3.95;;;16.20;99.90;;;;;;5073345;28;20059;-24
2023/05/04 09:04:18;;;;;;;10.32;4.55;;;16.70;1.00;;;;;;5075094;28;20502;-26
2023/05/04 09:06:46;;;;;;;10.55;4.60;;;16.80;99.90;;;;;;5073507;28;20394;-27
2023/05/04 09:09:12;;;;;;;10.85;4.55;;;17.20;99.90;;;;;;5072529;28;20048;-26
2023/05/04 09:11:39;;;;;;;8.48;4.85;;;17.30;99.90;;;;;;5073579;28;20052;-27
2023/05/04 09:14:05;;;;;;;10.23;4.35;;;17.50;99.90;;;;;;5072495;28;20139;-26
2023/05/04 09:16:37;;;;;;;9.32;4.20;;;17.50;93.40;;;;;;5092602;28;20563;-26
2023/05/04 09:19:04;;;;;;;8.23;4.57;;;17.50;1.00;;;;;;5091238;28;20453;-27
2023/05/04 09:21:31;;;;;;;10.05;5.00;;;17.30;7.90;;;;;;5074037;28;20056;-26
2023/05/04 09:23:57;;;;;;;11.15;5.15;;;17.20;79.40;;;;;;5073550;28;20048;-27
2023/05/04 09:26:30;;;;;;;9.52;4.40;;;17.30;99.90;;;;;;5074288;28;20032;-27
2023/05/04 09:28:56;;;;;;;;;;;17.60;1.00;;;;;;5073905;28;20049;-27
2023/05/04 09:31:22;;;;;;;13.38;4.93;;;18.20;1.00;;;;;;5073566;28;19924;-28
2023/05/04 09:33:48;;;;;;;9.50;4.93;;;18.60;1.00;;;;;;5073379;28;20542;-27
2023/05/04 09:36:19;;;;;;;10.55;4.10;;;19.10;1.00;;;;;;5073832;28;20127;-27
2023/05/04 09:38:45;;;;;;;10.65;7.47;;;19.30;99.90;;;;;;5073552;28;20049;-27
2023/05/04 09:41:11;;;;;;;7.97;3.97;;;19.50;99.90;;;;;;5082483;28;20059;-27
2023/05/04 09:43:39;;;;;;;9.10;4.05;;;19.50;99.90;;;;;;5082070;28;20040;-27
2023/05/04 09:46:05;;;;;;;13.70;3.50;;;19.70;99.90;;;;;;5092722;28;20082;-28
2023/05/04 09:48:31;;;;;;;6.43;3.65;;;19.80;99.90;;;;;;5077495;28;20049;-27
2023/05/04 09:50:58;;;;;;;10.25;4.68;;;19.90;99.90;;;;;;5055927;28;20052;-27
2023/05/04 09:53:26;;;;;;;10.07;3.95;;;19.80;99.90;;;;;;5074908;28;20047;-29
2023/05/04 09:56:01;;;;;;;7.65;3.45;;;19.90;99.90;;;;;;5090449;28;20040;-26
2023/05/04 09:58:29;;;;;;;6.20;3.53;;;20.60;99.90;;;;;;5079282;28;20548;-28
2023/05/04 10:00:56;;;;;;;10.32;4.22;;;20.70;99.90;;;;;;5081432;28;20058;-28
2023/05/04 10:03:22;;;;;;;8.30;4.18;;;21.00;99.90;;;;;;5086852;28;20047;-27
2023/05/04 10:05:49;;;;;;;16.20;4.50;;;21.00;99.90;;;;;;5090579;28;20097;-25
2023/05/04 10:08:17;;;;;;;6.85;3.42;;;21.50;99.90;;;;;;5083254;28;20102;-27
2023/05/04 10:10:43;;;;;;;12.25;4.97;;;21.90;99.90;;;;;;5078695;28;20086;-25
2023/05/04 10:13:09;;;;;;;5.03;3.63;;;22.30;99.90;;;;;;5075072;28;20080;-26
2023/05/04 10:15:38;;;;;;;10.30;3.92;;;22.50;99.90;;;;;;5076018;28;20165;-25
2023/05/04 10:18:36;;;;;;;9.63;3.47;;;22.10;71.50;;;;;;5078021;28;20040;-29
2023/05/04 10:21:14;;;;;;;8.02;3.97;;;22.00;71.60;;;;;;5062696;28;20479;-26
2023/05/04 10:24:18;;;;;;;16.50;6.80;;;21.70;42.20;;;;;;5080395;28;20402;-27
2023/05/04 10:26:54;;;;;;;6.38;3.50;;;21.20;21.10;;;;;;5085836;28;20036;-25
2023/05/04 10:29:22;;;;;;;10.00;3.78;;;21.00;44.30;;;;;;5076412;28;20041;-27
2023/05/04 10:31:48;;;;;;;9.50;3.88;;;21.20;47.00;;;;;;5079959;28;20045;-27
2023/05/04 10:34:33;;;;;;;8.20;4.00;;;21.80;79.40;;;;;;5090990;28;20075;-28
2023/05/04 10:37:00;;;;;;;6.80;3.88;;;22.10;49.40;;;;;;5076622;28;20041;-28
2023/05/04 10:39:31;;;;;;;11.23;4.00;;;22.20;54.40;;;;;;5077482;28;20048;-27
2023/05/04 10:42:05;;;;;;;6.20;3.45;;;21.90;42.80;;;;;;5077902;28;20044;-28
2023/05/04 10:44:32;;;;;;;6.57;3.65;;;21.80;99.90;;;;;;5080068;28;20040;-26
2023/05/04 10:47:04;;;;;;;9.45;3.75;;;22.00;99.90;;;;;;5078764;28;20424;-25
2023/05/04 10:49:31;;;;;;;10.90;5.40;;;22.30;99.90;;;;;;5076509;28;20044;-26
2023/05/04 10:52:11;;;;;;;10.27;4.10;;;22.30;99.90;;;;;;5081229;28;20290;-25
2023/05/04 10:54:41;;;;;;;9.65;3.67;;;22.60;99.90;;;;;;5077632;28;20536;-24
2023/05/04 10:57:09;;;;;;;8.02;3.75;;;22.90;99.90;;;;;;5079952;28;20047;-27
2023/05/04 10:59:36;;;;;;;8.38;3.67;;;22.80;99.90;;;;;;5083139;28;20072;-28
2023/05/04 11:02:02;;;;;;;11.30;4.28;;;23.30;99.90;;;;;;5079721;28;20493;-28
2023/05/04 11:04:28;;;;;;;8.98;3.47;;;22.70;99.90;;;;;;5074948;28;20060;-28
2023/05/04 11:07:01;;;;;;;8.80;4.03;;;22.50;99.90;;;;;;5074752;28;20047;-27
2023/05/04 11:09:33;;;;;;;13.38;5.63;;;22.60;99.90;;;;;;5076393;28;20055;-27
2023/05/04 11:11:59;;;;;;;8.07;3.40;;;22.50;99.90;;;;;;5074697;28;20045;-27
2023/05/04 11:14:27;;;;;;;7.60;3.35;;;22.90;99.90;;;;;;5075787;28;20408;-28
2023/05/04 11:17:06;;;;;;;6.38;3.20;;;23.10;99.90;;;;;;5075759;28;20044;-27
2023/05/04 11:19:33;;;;;;;8.70;3.65;;;23.50;99.90;;;;;;5074846;28;20049;-27
2023/05/04 11:22:02;;;;;;;8.65;3.53;;;23.30;99.90;;;;;;5075359;28;20364;-28
2023/05/04 11:24:42;;;;;;;8.68;2.92;;;23.20;99.90;;;;;;5075584;28;20048;-28
2023/05/04 11:27:19;;;;;;;7.80;3.13;;;23.10;99.90;;;;;;5078652;28;20556;-27
2023/05/04 11:29:59;;;;;;;11.25;3.30;;;23.00;99.90;;;;;;5092490;28;20044;-27
2023/05/04 11:32:37;;;;;;;8.85;3.33;;;23.10;99.90;;;;;;5089784;28;20438;-27
2023/05/04 11:35:07;;;;;;;6.40;3.42;;;23.40;99.90;;;;;;5077089;28;20494;-27
2023/05/04 11:37:43;;;;;;;8.15;3.20;;;23.70;99.90;;;;;;5094217;28;20036;-27
2023/05/04 11:40:13;;;;;;;6.53;3.45;;;24.10;99.90;;;;;;5096015;28;20044;-27
2023/05/04 11:42:41;;;;;;;10.82;3.58;;;24.50;99.90;;;;;;5095233;28;20048;-27
2023/05/04 11:45:31;;;;;;;9.18;3.55;;;24.30;99.90;;;;;;5083997;28;20474;-28
2023/05/04 11:47:58;;;;;;;7.28;3.28;;;24.30;99.90;;;;;;5072111;28;20142;-27
2023/05/04 11:50:25;;;;;;;7.95;3.13;;;23.80;99.90;;;;;;5075979;28;20045;-28
2023/05/04 11:53:12;;;;;;;8.15;3.55;;;23.80;99.90;;;;;;5075991;28;20051;-27
2023/05/04 11:55:39;;;;;;;6.53;3.03;;;24.00;99.90;;;;;;5076963;28;20394;-26
2023/05/04 11:58:06;;;;;;;7.45;3.00;;;24.00;99.90;;;;;;5079496;28;20123;-26
2023/05/04 12:00:38;;;;;;;9.27;3.58;;;24.10;99.90;;;;;;5087483;28;20044;-27
2023/05/04 12:03:05;;;;;;;6.80;3.50;;;24.70;99.90;;;;;;5080717;28;20048;-28
2023/05/04 12:05:33;;;;;;;8.60;3.35;;;24.60;99.90;;;;;;5080454;28;20076;-28
2023/05/04 12:07:59;;;;;;;9.15;4.18;;;24.80;99.90;;;;;;5084000;28;20051;-27
2023/05/04 12:10:33;;;;;;;17.80;6.10;;;25.10;99.90;;;;;;5088258;28;20044;-28
2023/05/04 12:13:00;;;;;;;21.10;5.93;;;24.90;99.90;;;;;;5074575;28;20458;-27
2023/05/04 12:15:35;;;;;;;7.03;3.97;;;24.70;99.90;;;;;;5073652;28;20134;-28
2023/05/04 12:18:01;;;;;;;10.40;3.80;;;24.70;99.90;;;;;;5074398;28;20044;-27
2023/05/04 12:20:28;;;;;;;11.30;5.47;;;24.50;99.90;;;;;;5056636;28;20514;-28
2023/05/04 12:23:04;;;;;;;8.30;3.80;;;24.90;99.90;;;;;;5093801;28;20052;-28
2023/05/04 12:25:29;;;;;;;16.15;6.47;;;25.10;99.90;;;;;;5094598;28;20044;-27
2023/05/04 12:27:56;;;;;;;7.72;3.80;;;24.70;99.90;;;;;;5076942;28;20485;-27
2023/05/04 12:30:22;;;;;;;6.95;3.22;;;24.30;99.90;;;;;;5073135;28;20482;-27
2023/05/04 12:32:48;;;;;;;9.57;3.47;;;24.60;99.90;;;;;;5074354;28;20050;-28
2023/05/04 12:35:13;;;;;;;6.05;3.35;;;24.90;99.90;;;;;;5074297;28;20052;-28
2023/05/04 12:37:39;;;;;;;9.93;3.58;;;25.00;99.90;;;;;;5074741;28;20040;-27
2023/05/04 12:40:06;;;;;;;14.35;5.43;;;25.20;99.90;;;;;;5073608;28;20130;-28
2023/05/04 12:42:32;;;;;;;7.43;3.33;;;25.40;99.90;;;;;;5074197;28;20501;-28
2023/05/04 12:44:58;;;;;;;9.25;3.42;;;25.50;99.90;;;;;;5074757;28;20041;-27
2023/05/04 12:47:24;;;;;;;12.73;3.95;;;25.40;99.90;;;;;;5080099;28;20048;-28
2023/05/04 12:49:50;;;;;;;9.25;3.75;;;25.10;99.90;;;;;;5094176;28;20098;-28
2023/05/04 12:52:16;;;;;;;5.55;3.10;;;25.10;99.90;;;;;;5094234;28;20500;-27